Time;durP1;ratioP1;P1;durP2;ratioP2;P2;SDS_P1;SDS_P2;PMS_P1;PMS_P2;Temp;Humidity;BMP_temperature;BMP_pressure;BME280_temperature;BME280_humidity;BME280_pressure;Samples;Min_cycle;Max_cycle;Signal;HPM_P1;HPM_P2
2022/09/26 03:04:35;;;;;;;6.75;2.78;;;;;;;13.35;55.04;100052.31;4902434;29;20067;-70
2022/09/26 03:07:06;;;;;;;8.73;3.10;;;;;;;13.32;55.35;100057.25;4914350;29;20128;-70
2022/09/26 03:09:33;;;;;;;8.60;2.92;;;;;;;13.42;55.11;100063.13;4913758;29;20060;-70
2022/09/26 03:12:03;;;;;;;9.85;2.30;;;;;;;13.43;55.18;100061.28;4900604;29;20514;-70
2022/09/26 03:14:32;;;;;;;4.75;2.30;;;;;;;13.33;55.37;100058.91;4899996;29;20511;-70
2022/09/26 03:17:02;;;;;;;6.15;2.20;;;;;;;13.37;55.48;100056.66;4913898;29;20059;-70
2022/09/26 03:19:38;;;;;;;7.80;3.22;;;;;;;13.27;55.47;100051.63;4914557;29;20416;-71
2022/09/26 03:22:05;;;;;;;9.48;2.72;;;;;;;13.34;55.36;100052.50;4914459;29;20044;-70
2022/09/26 03:24:35;;;;;;;6.72;2.35;;;;;;;13.30;55.43;100062.84;4914360;29;20059;-70
2022/09/26 03:27:03;;;;;;;10.43;2.95;;;;;;;13.26;55.52;100050.78;4914818;29;20055;-71
2022/09/26 03:29:33;;;;;;;14.73;3.08;;;;;;;13.38;55.23;100059.16;4914639;29;20052;-71
2022/09/26 03:32:00;;;;;;;11.65;2.60;;;;;;;13.26;55.46;100053.47;4914735;29;20411;-70
2022/09/26 03:34:26;;;;;;;15.10;3.40;;;;;;;13.26;55.53;100052.66;4914738;29;20165;-70
2022/09/26 03:36:54;;;;;;;8.93;2.83;;;;;;;13.30;55.34;100049.38;4906097;29;20485;-70
2022/09/26 03:39:20;;;;;;;8.20;2.50;;;;;;;13.27;55.36;100044.34;4896122;29;20052;-70
2022/09/26 03:41:47;;;;;;;7.00;2.40;;;;;;;13.20;55.60;100038.09;4895912;29;20059;-71
2022/09/26 03:44:14;;;;;;;6.22;3.28;;;;;;;13.17;55.69;100033.09;4895636;29;20049;-70
2022/09/26 03:46:43;;;;;;;7.70;2.70;;;;;;;13.17;55.58;100033.09;4895378;29;20093;-70
2022/09/26 03:49:10;;;;;;;9.70;3.50;;;;;;;13.17;55.78;100030.38;4895726;29;20060;-71
2022/09/26 03:51:37;;;;;;;7.70;2.42;;;;;;;13.23;55.60;100024.22;4894483;29;20104;-65
2022/09/26 03:54:04;;;;;;;7.18;2.60;;;;;;;13.03;56.12;100031.31;4895426;29;20052;-64
2022/09/26 03:56:30;;;;;;;4.93;2.60;;;;;;;13.01;56.14;100028.81;4895576;29;20060;-66
2022/09/26 03:58:57;;;;;;;9.02;2.72;;;;;;;12.92;55.95;100029.13;4895557;29;20044;-65
2022/09/26 04:01:23;;;;;;;7.20;3.10;;;;;;;13.13;55.54;100026.41;4894712;29;20416;-66
2022/09/26 04:03:50;;;;;;;12.98;2.88;;;;;;;13.27;55.32;100019.28;4912718;29;20075;-66
2022/09/26 04:06:18;;;;;;;4.60;2.72;;;;;;;13.31;55.08;100017.88;4914205;29;20074;-66
2022/09/26 04:08:48;;;;;;;10.52;3.05;;;;;;;13.16;55.61;100015.25;4913825;29;20043;-71
2022/09/26 04:11:18;;;;;;;8.43;2.65;;;;;;;13.15;55.52;100013.59;4919898;29;20047;-71
2022/09/26 04:13:45;;;;;;;6.05;3.28;;;;;;;13.10;55.70;100011.47;4936998;29;20047;-71
2022/09/26 04:16:18;;;;;;;13.05;3.42;;;;;;;13.23;55.36;100008.06;4936405;29;20385;-71
2022/09/26 04:18:45;;;;;;;8.30;2.85;;;;;;;13.16;55.41;99992.88;4936797;29;20458;-71
2022/09/26 04:21:13;;;;;;;9.65;2.85;;;;;;;13.17;55.51;100002.63;4920005;29;20048;-69
2022/09/26 04:23:41;;;;;;;13.43;2.60;;;;;;;13.04;55.74;100000.66;4936801;29;20052;-72
2022/09/26 04:26:13;;;;;;;9.45;3.15;;;;;;;12.97;55.76;100000.63;4936590;29;20056;-70
2022/09/26 04:28:48;;;;;;;13.65;3.65;;;;;;;12.88;55.95;100002.59;4935481;29;20436;-69
2022/09/26 04:31:14;;;;;;;15.52;8.07;;;;;;;12.75;56.34;100001.63;4936802;29;20052;-71
2022/09/26 04:33:41;;;;;;;18.38;6.82;;;;;;;12.56;57.16;100003.06;4936108;29;20411;-68
2022/09/26 04:36:10;;;;;;;9.15;4.93;;;;;;;12.58;57.10;100006.38;4936348;29;20415;-70
2022/09/26 04:38:38;;;;;;;7.97;2.78;;;;;;;12.43;57.48;100009.13;4937145;29;20053;-70
2022/09/26 04:41:10;;;;;;;11.27;4.57;;;;;;;12.24;58.14;99999.78;4936388;29;20055;-70
2022/09/26 04:43:37;;;;;;;12.30;4.68;;;;;;;12.18;58.31;100005.94;4936332;29;20052;-70
2022/09/26 04:46:16;;;;;;;7.32;3.63;;;;;;;12.33;58.09;100003.22;4937340;29;20048;-72
2022/09/26 04:48:49;;;;;;;11.15;3.80;;;;;;;12.54;57.57;100005.13;4936344;29;20043;-70
2022/09/26 04:51:17;;;;;;;19.42;4.32;;;;;;;12.36;58.29;100002.84;4936441;29;20056;-70
2022/09/26 04:53:44;;;;;;;14.85;4.45;;;;;;;11.99;59.45;100001.16;4934584;29;20062;-70
2022/09/26 04:56:12;;;;;;;11.07;4.63;;;;;;;12.00;59.64;100002.81;4935832;29;20510;-71
2022/09/26 04:58:40;;;;;;;9.57;4.13;;;;;;;12.05;59.48;100001.22;4935230;29;20131;-69
2022/09/26 05:01:09;;;;;;;12.65;4.95;;;;;;;11.82;60.12;100000.50;4935583;29;20431;-70
2022/09/26 05:03:36;;;;;;;12.98;4.13;;;;;;;12.03;59.32;100007.81;4951551;29;20466;-69
2022/09/26 05:06:07;;;;;;;10.68;4.22;;;;;;;12.22;58.94;99999.16;4955987;29;20073;-69
2022/09/26 05:08:35;;;;;;;9.13;4.93;;;;;;;12.02;59.29;99990.84;4956382;29;20418;-69
2022/09/26 05:11:01;;;;;;;8.60;4.32;;;;;;;11.97;59.46;99992.44;4947979;29;20051;-68
2022/09/26 05:13:28;;;;;;;23.85;4.30;;;;;;;11.91;59.84;99994.03;4936314;29;20067;-69
2022/09/26 05:15:58;;;;;;;10.85;4.70;;;;;;;12.01;59.14;99981.13;4936721;29;20147;-67
2022/09/26 05:18:25;;;;;;;10.65;4.63;;;;;;;12.30;58.55;99996.34;4937234;29;20047;-67
2022/09/26 05:20:53;;;;;;;11.13;4.03;;;;;;;12.06;59.23;99991.31;4937235;29;20043;-69
2022/09/26 05:26:26;;;;;;;15.70;5.37;;;;;;;12.16;58.38;99991.84;4938101;29;20492;-71
2022/09/26 05:28:54;;;;;;;;;;;;;;;12.35;58.10;99991.25;4937298;29;20044;-70
2022/09/26 05:31:24;;;;;;;13.98;4.32;;;;;;;12.32;58.14;99988.13;4937047;29;20393;-72
2022/09/26 05:33:51;;;;;;;17.83;5.07;;;;;;;12.44;57.77;99991.13;4936819;29;20071;-70
2022/09/26 05:36:18;;;;;;;9.43;4.82;;;;;;;12.25;58.13;99985.34;4936307;29;20043;-70
2022/09/26 05:38:45;;;;;;;12.13;5.40;;;;;;;12.15;58.57;99992.88;4936590;29;20058;-70
2022/09/26 05:41:12;;;;;;;8.85;4.70;;;;;;;12.32;57.99;99988.13;4935049;29;20043;-70
2022/09/26 05:43:39;;;;;;;14.77;4.60;;;;;;;12.11;58.63;99988.91;4935269;29;20063;-70
2022/09/26 05:46:08;;;;;;;14.73;5.63;;;;;;;12.05;58.90;99985.09;4935796;29;20099;-71
2022/09/26 05:48:36;;;;;;;10.90;4.55;;;;;;;11.75;59.60;99986.16;4936061;29;20048;-71
2022/09/26 05:51:03;;;;;;;15.25;5.38;;;;;;;12.03;58.90;99984.44;4936070;29;20048;-70
2022/09/26 05:53:33;;;;;;;12.68;5.00;;;;;;;12.01;58.72;99989.19;4936225;29;20058;-70
2022/09/26 05:55:59;;;;;;;9.95;4.50;;;;;;;12.08;58.88;99983.91;4935739;29;20074;-70
2022/09/26 05:58:31;;;;;;;11.90;4.75;;;;;;;11.96;59.12;99975.47;4935738;29;20392;-70
2022/09/26 06:01:05;;;;;;;11.95;5.10;;;;;;;11.93;59.15;99975.84;4936131;29;20051;-72
2022/09/26 06:03:35;;;;;;;11.32;4.68;;;;;;;12.27;58.22;99985.97;4935113;29;20063;-70
2022/09/26 06:06:03;;;;;;;8.13;4.28;;;;;;;12.08;58.93;99983.91;4935370;29;20050;-70
2022/09/26 06:08:30;;;;;;;22.98;8.40;;;;;;;12.32;58.19;99985.44;4935508;29;20051;-69
2022/09/26 06:10:59;;;;;;;19.05;10.70;;;;;;;12.45;57.76;99988.25;4927984;29;20531;-73
2022/09/26 06:13:26;;;;;;;13.73;4.90;;;;;;;12.20;58.55;99985.06;4915236;29;20044;-73
2022/09/26 06:15:53;;;;;;;8.30;3.92;;;;;;;12.07;58.85;99977.69;4916855;29;20055;-75
2022/09/26 06:18:20;;;;;;;16.50;5.20;;;;;;;12.07;58.60;99975.00;4916449;29;20048;-74
2022/09/26 06:20:46;;;;;;;23.98;5.57;;;;;;;12.24;58.49;99972.91;4916113;29;20051;-75
2022/09/26 06:23:12;;;;;;;9.88;4.78;;;;;;;11.96;58.88;99970.09;4915992;29;20055;-73
2022/09/26 06:25:39;;;;;;;8.68;4.85;;;;;;;12.05;58.60;99968.97;4915456;29;20048;-75
2022/09/26 06:28:05;;;;;;;12.45;4.45;;;;;;;12.15;58.73;99971.38;4916022;29;20048;-75
2022/09/26 06:30:32;;;;;;;16.13;4.47;;;;;;;12.36;57.79;99976.78;4922966;29;20058;-74
2022/09/26 06:32:59;;;;;;;11.82;4.85;;;;;;;12.51;57.81;99967.81;4932998;29;20539;-74
2022/09/26 06:35:26;;;;;;;12.35;4.80;;;;;;;12.71;56.80;99963.47;4934081;29;20047;-74
2022/09/26 06:37:52;;;;;;;11.02;4.47;;;;;;;12.81;56.47;99963.19;4935289;29;20054;-75
2022/09/26 06:40:19;;;;;;;11.43;4.47;;;;;;;13.00;56.06;99957.13;4934451;29;20051;-75
2022/09/26 06:42:46;;;;;;;11.95;4.30;;;;;;;13.37;54.92;99959.69;4924855;29;20523;-75
2022/09/26 06:45:13;;;;;;;10.18;4.43;;;;;;;13.62;54.30;99952.78;4934891;29;20062;-75
2022/09/26 06:47:40;;;;;;;15.63;4.45;;;;;;;14.07;52.94;99953.22;4933249;29;20048;-76
2022/09/26 06:50:07;;;;;;;11.65;4.28;;;;;;;13.70;53.47;99952.63;4933800;29;20058;-76
2022/09/26 06:52:34;;;;;;;11.02;4.63;;;;;;;14.10;52.65;99955.53;4933801;29;20048;-76
2022/09/26 06:55:02;;;;;;;7.78;4.32;;;;;;;14.15;52.81;99947.69;4932344;29;20048;-76
2022/09/26 06:57:36;;;;;;;12.68;5.05;;;;;;;14.88;51.03;99942.44;4934543;29;20055;-75
2022/09/26 07:00:03;;;;;;;10.32;4.43;;;;;;;15.40;49.68;99938.00;4934321;29;20058;-76
2022/09/26 07:02:30;;;;;;;12.05;4.70;;;;;;;16.16;48.17;99948.19;4934079;29;20047;-76
2022/09/26 07:04:56;;;;;;;12.45;4.72;;;;;;;15.45;48.89;99940.06;4933828;29;20048;-75
2022/09/26 07:07:23;;;;;;;16.10;4.57;;;;;;;15.51;48.86;99941.94;4934670;29;20484;-76
2022/09/26 07:09:50;;;;;;;13.18;3.92;;;;;;;16.14;47.50;99938.63;4933515;29;20501;-76
2022/09/26 07:12:16;;;;;;;7.57;3.80;;;;;;;15.77;48.24;99940.22;4915806;29;20100;-77
2022/09/26 07:14:43;;;;;;;12.00;3.72;;;;;;;15.99;47.62;99944.31;4914394;29;20048;-74
2022/09/26 07:17:14;;;;;;;21.05;4.18;;;;;;;16.17;46.85;99947.13;4914490;29;20055;-76
2022/09/26 07:19:41;;;;;;;12.80;3.55;;;;;;;16.92;45.85;99943.75;4914679;29;20542;-76
2022/09/26 07:22:08;;;;;;;6.88;3.70;;;;;;;17.26;44.60;99947.00;4914526;29;20064;-77
2022/09/26 07:24:35;;;;;;;9.75;3.20;;;;;;;17.85;43.26;99940.13;4913992;29;20419;-69
2022/09/26 07:27:02;;;;;;;11.43;3.20;;;;;;;17.22;44.15;99938.47;4914519;29;20380;-70
2022/09/26 07:29:28;;;;;;;9.70;3.38;;;;;;;17.03;44.06;99942.22;4908419;29;20059;-69
2022/09/26 07:31:55;;;;;;;11.32;2.90;;;;;;;17.11;44.21;99931.91;4914607;29;20063;-69
2022/09/26 07:34:24;;;;;;;7.10;3.10;;;;;;;17.92;41.93;99930.00;4914557;29;20054;-77
2022/09/26 07:36:51;;;;;;;9.73;2.92;;;;;;;17.38;42.82;99928.16;4913945;29;20044;-77
2022/09/26 07:39:18;;;;;;;8.68;3.17;;;;;;;17.93;42.07;99922.72;4914054;29;20047;-76
2022/09/26 07:41:45;;;;;;;9.85;2.67;;;;;;;17.85;41.82;99923.84;4914249;29;20064;-76
2022/09/26 07:44:13;;;;;;;8.93;2.92;;;;;;;18.55;40.66;99926.88;4916275;29;20063;-77
2022/09/26 07:52:30;;;;;;;9.35;2.92;;;;;;;19.31;38.64;99929.84;4917602;29;20052;-76
2022/09/26 07:54:56;;;;;;;9.57;2.50;;;;;;;19.14;38.28;99931.59;4918549;29;20052;-76
2022/09/26 07:57:23;;;;;;;9.00;2.42;;;;;;;19.79;37.02;99930.63;4918659;29;20055;-76
2022/09/26 07:59:51;;;;;;;5.90;2.33;;;;;;;19.96;36.62;99929.63;4918331;29;20500;-76
2022/09/26 08:02:23;;;;;;;7.60;2.05;;;;;;;20.31;36.28;99925.09;4918423;29;20088;-76
2022/09/26 08:04:52;;;;;;;9.05;2.17;;;;;;;19.81;36.48;99933.94;4918084;29;20044;-76
2022/09/26 08:07:25;;;;;;;10.35;2.17;;;;;;;19.14;37.61;99928.88;4918648;29;20040;-76
2022/09/26 08:09:52;;;;;;;13.05;2.22;;;;;;;20.11;35.98;99931.00;4916610;29;20048;-77
2022/09/26 08:12:19;;;;;;;5.95;2.63;;;;;;;20.43;35.27;99921.28;4935849;29;20050;-76
2022/09/26 08:14:50;;;;;;;11.65;2.95;;;;;;;20.76;34.71;99927.00;4936495;29;20048;-75
2022/09/26 08:17:16;;;;;;;4.40;2.40;;;;;;;20.94;34.16;99924.06;4937215;29;20396;-76
2022/09/26 08:19:43;;;;;;;11.05;2.35;;;;;;;20.86;34.40;99924.47;4936745;29;20132;-77
2022/09/26 08:22:10;;;;;;;12.68;2.58;;;;;;;20.80;34.42;99918.13;4935633;29;20048;-76
2022/09/26 08:24:42;;;;;;;6.93;2.33;;;;;;;20.73;34.78;99913.88;4935805;29;20051;-78
2022/09/26 08:27:09;;;;;;;6.40;2.25;;;;;;;20.76;34.79;99911.47;4936450;29;20102;-76
2022/09/26 08:29:35;;;;;;;5.75;2.20;;;;;;;19.69;35.69;99913.03;4935526;29;20054;-76
2022/09/26 08:32:03;;;;;;;9.02;2.63;;;;;;;20.06;35.61;99923.56;4935910;29;20063;-76
2022/09/26 08:34:30;;;;;;;9.38;3.30;;;;;;;19.80;36.14;99910.53;4936679;29;20131;-76
2022/09/26 08:36:57;;;;;;;9.05;2.70;;;;;;;19.91;35.19;99915.91;4934794;29;20059;-76
2022/09/26 08:39:23;;;;;;;8.40;2.83;;;;;;;19.69;36.00;99912.16;4936345;29;20082;-76
2022/09/26 08:42:22;;;;;;;6.90;2.40;;;;;;;21.15;33.61;99908.88;4936326;29;21127;-76
2022/09/26 08:48:12;;;;;;;6.75;2.90;;;;;;;20.35;34.69;99899.88;4925459;29;20388;-76
2022/09/26 08:50:52;;;;;;;5.10;2.35;;;;;;;21.17;33.29;99898.53;4936178;29;20415;-76
2022/09/26 08:53:25;;;;;;;10.23;2.97;;;;;;;21.88;31.91;99901.41;4926779;29;20052;-76
2022/09/26 08:55:56;;;;;;;9.60;2.83;;;;;;;22.16;31.87;99896.81;4934247;29;20044;-76
2022/09/26 08:58:44;;;;;;;8.88;2.75;;;;;;;20.73;33.86;99898.38;4935796;29;20048;-76
2022/09/26 09:01:22;;;;;;;9.93;3.15;;;;;;;21.73;32.61;99896.53;4935939;29;20424;-76
2022/09/26 09:03:54;;;;;;;13.07;2.95;;;;;;;23.57;29.95;99886.41;4935861;29;20051;-74
2022/09/26 09:06:25;;;;;;;4.70;1.60;;;;;;;24.17;27.91;99888.56;4935998;29;20051;-74
2022/09/26 09:08:55;;;;;;;8.97;1.73;;;;;;;24.24;27.58;99876.53;4919045;29;20048;-75
2022/09/26 09:11:30;;;;;;;5.65;1.85;;;;;;;22.76;29.16;99882.88;4925162;29;20052;-75
2022/09/26 09:14:07;;;;;;;11.55;2.25;;;;;;;21.37;30.24;99884.34;4916323;29;20044;-76
2022/09/26 09:16:43;;;;;;;3.05;1.13;;;;;;;20.40;30.95;99880.09;4916693;29;20055;-76
2022/09/26 09:19:25;;;;;;;3.17;1.17;;;;;;;20.72;30.71;99866.72;4917078;29;20052;-74
2022/09/26 09:22:11;;;;;;;3.20;0.90;;;;;;;21.28;29.30;99880.41;4915702;29;20052;-74
2022/09/26 09:25:12;;;;;;;5.20;1.17;;;;;;;22.27;28.10;99872.03;4916637;29;20047;-74
2022/09/26 09:27:48;;;;;;;4.70;1.25;;;;;;;22.73;27.62;99866.19;4916444;29;20052;-74
2022/09/26 09:30:40;;;;;;;3.85;1.27;;;;;;;22.62;27.90;99867.19;4916182;29;20079;-74
2022/09/26 09:33:25;;;;;;;8.45;1.42;;;;;;;23.50;26.51;99857.38;4916393;29;20131;-74
2022/09/26 09:35:59;;;;;;;6.88;1.30;;;;;;;23.35;26.22;99849.09;4916638;29;20047;-71
2022/09/26 09:38:30;;;;;;;4.72;1.00;;;;;;;22.95;27.50;99857.88;4917657;29;20062;-73
2022/09/26 09:41:25;;;;;;;5.43;0.90;;;;;;;23.21;27.07;99854.22;4916160;29;20062;-71
2022/09/26 09:43:57;;;;;;;3.78;1.00;;;;;;;21.88;28.99;99860.47;4915962;29;20523;-70
2022/09/26 09:46:27;;;;;;;3.22;1.23;;;;;;;21.28;30.05;99850.38;4914969;29;20056;-71
2022/09/26 09:49:22;;;;;;;5.45;1.40;;;;;;;22.23;28.61;99846.34;4915957;29;20048;-71
2022/09/26 09:52:06;;;;;;;2.50;1.10;;;;;;;22.31;27.55;99840.38;4904120;29;20051;-68
2022/09/26 09:54:41;;;;;;;5.65;1.20;;;;;;;22.07;29.83;99836.34;4915780;29;20477;-70
2022/09/26 09:57:35;;;;;;;8.27;1.30;;;;;;;24.18;26.25;99824.44;4905401;29;20063;-70
2022/09/26 10:00:08;;;;;;;6.55;1.50;;;;;;;23.39;26.43;99825.56;4915460;29;20040;-70
2022/09/26 10:02:39;;;;;;;2.72;1.20;;;;;;;22.19;27.22;99822.53;4915285;29;20515;-69
2022/09/26 10:05:43;;;;;;;3.75;1.20;;;;;;;22.09;28.12;99818.63;4916096;29;20092;-69
2022/09/26 10:08:30;;;;;;;7.40;1.38;;;;;;;23.15;27.55;99816.97;4914175;29;20441;-69
2022/09/26 10:11:10;;;;;;;6.97;1.80;;;;;;;22.81;27.34;99816.50;4923021;29;20412;-70
2022/09/26 10:13:41;;;;;;;6.13;1.20;;;;;;;22.47;27.87;99805.03;4934161;29;20146;-66
2022/09/26 10:16:10;;;;;;;3.03;1.10;;;;;;;21.14;29.75;99809.00;4934453;29;20406;-68
2022/09/26 10:18:59;;;;;;;5.68;1.90;;;;;;;19.70;31.91;99807.72;4933805;29;20048;-68
2022/09/26 10:21:38;;;;;;;5.35;1.15;;;;;;;18.79;34.08;99799.19;4934175;29;20051;-69
2022/09/26 10:24:06;;;;;;;6.30;1.58;;;;;;;19.34;34.01;99801.53;4934235;29;20054;-70
2022/09/26 10:26:34;;;;;;;6.07;1.30;;;;;;;19.22;33.58;99792.56;4933335;29;20071;-64
2022/09/26 10:29:07;;;;;;;3.60;1.40;;;;;;;19.30;33.69;99797.63;4933565;29;20494;-64
2022/09/26 10:31:37;;;;;;;6.10;1.58;;;;;;;19.20;33.68;99783.81;4934769;29;20056;-64
2022/09/26 10:34:26;;;;;;;6.05;1.95;;;;;;;18.65;34.56;99792.34;4934072;29;20055;-65
2022/09/26 10:36:54;;;;;;;5.80;1.40;;;;;;;18.57;34.85;99790.00;4932638;29;20075;-65
2022/09/26 10:42:13;;;;;;;2.65;1.25;;;;;;;18.86;33.88;99789.06;4933787;29;20483;-64
2022/09/26 10:44:41;;;;;;;2.17;1.13;;;;;;;18.69;34.01;99778.09;4933471;29;20415;-64
2022/09/26 10:47:14;;;;;;;7.78;1.65;;;;;;;18.62;33.60;99781.97;4934127;29;20056;-70
2022/09/26 10:49:56;;;;;;;4.30;1.17;;;;;;;17.87;34.54;99780.66;4933213;29;20044;-69
2022/09/26 10:52:29;;;;;;;3.42;1.42;;;;;;;18.26;34.44;99778.41;4933861;29;20110;-68
2022/09/26 10:55:20;;;;;;;7.40;1.73;;;;;;;17.93;35.14;99779.72;4938228;29;20047;-68
2022/09/26 10:57:53;;;;;;;3.28;1.30;;;;;;;17.72;34.40;99775.66;4933668;29;20393;-68
2022/09/26 11:00:36;;;;;;;5.13;0.90;;;;;;;17.69;34.74;99778.81;4933034;29;20058;-68
2022/09/26 11:03:05;;;;;;;3.20;0.90;;;;;;;17.90;34.52;99774.75;4943876;29;20048;-69
2022/09/26 11:08:33;;;;;;;4.82;2.00;;;;;;;17.84;34.60;99762.94;4951932;29;20212;-69
2022/09/26 11:11:03;;;;;;;4.30;1.10;;;;;;;17.96;34.92;99760.28;4944024;29;20043;-69
2022/09/26 11:13:43;;;;;;;9.85;1.40;;;;;;;18.02;35.04;99761.22;4931859;29;20059;-68
2022/09/26 11:16:13;;;;;;;3.63;1.03;;;;;;;17.94;34.80;99765.09;4932264;29;20047;-68
2022/09/26 11:18:40;;;;;;;3.78;1.10;;;;;;;17.45;35.87;99756.19;4931514;29;20048;-68
2022/09/26 11:21:34;;;;;;;4.63;1.20;;;;;;;17.77;35.46;99751.34;4933643;29;20055;-68
2022/09/26 11:24:21;;;;;;;4.38;1.00;;;;;;;17.41;35.41;99743.34;4913671;29;20122;-68
2022/09/26 11:27:30;;;;;;;4.28;1.25;;;;;;;17.24;36.17;99737.69;4932293;29;20051;-68
2022/09/26 11:30:12;;;;;;;9.43;1.88;;;;;;;17.68;35.56;99747.31;4931296;29;20039;-68
2022/09/26 11:32:42;;;;;;;8.60;2.10;;;;;;;18.69;33.91;99741.94;4916227;29;20487;-69
2022/09/26 11:35:15;;;;;;;12.35;2.00;;;;;;;18.16;34.45;99732.81;4933424;29;20056;-70
2022/09/26 11:37:52;;;;;;;7.65;1.73;;;;;;;18.55;33.44;99736.75;4932199;29;20047;-69
2022/09/26 11:40:29;;;;;;;6.60;1.80;;;;;;;17.46;34.40;99730.72;4933120;29;20059;-68
2022/09/26 11:42:55;;;;;;;6.18;1.60;;;;;;;17.91;34.22;99730.28;4932719;29;20050;-65
2022/09/26 11:45:39;;;;;;;10.35;1.52;;;;;;;18.27;33.73;99725.75;4925250;29;20055;-65
2022/09/26 11:48:39;;;;;;;13.90;1.75;;;;;;;17.98;34.34;99731.00;4933564;29;20063;-65
2022/09/26 11:51:45;;;;;;;7.55;2.28;;;;;;;17.65;35.01;99725.25;4934654;29;20051;-64
2022/09/26 11:54:30;;;;;;;8.60;1.50;;;;;;;17.77;34.88;99726.13;4933478;29;20056;-65
2022/09/26 11:57:13;;;;;;;7.30;1.38;;;;;;;17.26;35.75;99724.72;4933442;29;20047;-65
2022/09/26 12:00:06;;;;;;;7.60;1.50;;;;;;;17.36;35.83;99714.19;4916460;29;20050;-65
2022/09/26 12:03:04;;;;;;;7.75;1.25;;;;;;;17.08;36.32;99715.56;4933656;29;20107;-65
2022/09/26 12:06:06;;;;;;;8.48;1.48;;;;;;;17.24;36.47;99710.59;4934427;29;20500;-64
2022/09/26 12:08:48;;;;;;;6.20;1.40;;;;;;;16.99;36.44;99707.97;4934034;29;20518;-64
2022/09/26 12:11:33;;;;;;;7.78;1.58;;;;;;;17.72;35.57;99697.00;4925133;29;20129;-66
2022/09/26 12:14:38;;;;;;;7.93;1.75;;;;;;;18.79;33.38;99691.38;4916148;29;20052;-64
2022/09/26 12:17:09;;;;;;;10.52;1.88;;;;;;;19.40;32.50;99686.34;4915807;29;20157;-62
2022/09/26 12:20:03;;;;;;;5.25;3.47;;;;;;;19.29;33.01;99681.78;4916672;29;20376;-63
2022/09/26 12:23:09;;;;;;;9.85;3.78;;;;;;;18.59;33.93;99674.63;4915357;29;20367;-65
2022/09/26 12:25:45;;;;;;;10.98;2.38;;;;;;;17.80;34.63;99672.22;4913201;29;20048;-65
2022/09/26 12:28:21;;;;;;;4.82;1.98;;;;;;;17.70;34.85;99671.97;4916144;29;20063;-64
2022/09/26 12:30:53;;;;;;;9.32;3.15;;;;;;;17.89;35.44;99661.03;4917216;29;20052;-67
2022/09/26 12:33:44;;;;;;;11.98;1.70;;;;;;;17.64;34.96;99667.47;4919118;29;20052;-64
2022/09/26 12:36:23;;;;;;;5.07;1.10;;;;;;;17.74;34.83;99661.47;4919498;29;20511;-64
2022/09/26 12:38:52;;;;;;;6.22;1.77;;;;;;;17.46;35.22;99659.41;4920227;29;20048;-65
2022/09/26 12:41:47;;;;;;;7.47;1.90;;;;;;;17.27;35.81;99662.16;4918667;29;20044;-62
2022/09/26 12:44:21;;;;;;;5.45;1.05;;;;;;;17.22;35.61;99663.88;4920058;29;20044;-65
2022/09/26 12:47:18;;;;;;;6.43;1.50;;;;;;;17.14;35.25;99652.31;4918348;29;20051;-66
2022/09/26 12:50:06;;;;;;;11.85;1.67;;;;;;;17.65;34.59;99657.44;4919852;29;20044;-64
2022/09/26 12:53:08;;;;;;;7.43;1.52;;;;;;;18.01;34.19;99642.88;4918757;29;20067;-65
2022/09/26 12:55:47;;;;;;;10.35;1.40;;;;;;;17.51;34.94;99637.84;4919137;29;20044;-64
2022/09/26 12:58:35;;;;;;;4.45;1.27;;;;;;;17.09;35.33;99638.66;4901399;29;20420;-65
2022/09/26 13:01:24;;;;;;;6.65;1.48;;;;;;;16.44;36.66;99635.66;4917764;29;20068;-65
2022/09/26 13:04:08;;;;;;;7.68;1.38;;;;;;;16.95;35.55;99634.44;4918835;29;20052;-64
2022/09/26 13:07:22;;;;;;;6.07;1.15;;;;;;;16.53;36.25;99626.22;4910225;29;20380;-65
2022/09/26 13:10:01;;;;;;;9.68;1.50;;;;;;;16.52;36.57;99627.25;4827381;29;20057;-65
2022/09/26 13:12:46;;;;;;;6.90;1.67;;;;;;;16.68;36.48;99623.13;4843197;29;20069;-64
2022/09/26 13:15:34;;;;;;;8.77;1.50;;;;;;;16.61;36.21;99631.34;4842679;29;20050;-63
2022/09/26 13:18:11;;;;;;;6.80;1.63;;;;;;;16.93;35.97;99630.31;4840897;29;20443;-64
2022/09/26 13:20:42;;;;;;;9.45;1.35;;;;;;;17.17;36.08;99629.34;4842006;29;20050;-62
2022/09/26 13:23:36;;;;;;;6.80;1.70;;;;;;;16.60;36.71;99618.00;4842958;29;20077;-64
2022/09/26 13:26:24;;;;;;;7.82;1.35;;;;;;;16.95;36.27;99612.75;4841433;29;20422;-63
2022/09/26 13:29:16;;;;;;;11.45;1.30;;;;;;;16.64;36.59;99616.50;4839508;29;20050;-63
2022/09/26 13:32:03;;;;;;;7.93;1.52;;;;;;;16.76;36.47;99616.56;4848310;29;20610;-62
2022/09/26 13:34:38;;;;;;;7.53;1.40;;;;;;;16.83;36.47;99614.59;4859709;29;20049;-63
2022/09/26 13:37:27;;;;;;;14.07;1.38;;;;;;;16.75;36.95;99613.03;4858953;29;20057;-63
2022/09/26 13:40:31;;;;;;;6.00;1.30;;;;;;;16.77;36.83;99601.97;4859718;29;20129;-66
2022/09/26 13:43:23;;;;;;;7.30;1.73;;;;;;;17.23;36.69;99601.31;4870350;29;20101;-62
2022/09/26 13:46:15;;;;;;;2.80;1.05;;;;;;;17.18;36.95;99594.94;4937467;29;20074;-63
2022/09/26 13:48:53;;;;;;;9.90;1.40;;;;;;;16.58;37.47;99593.06;4937180;29;20054;-63
2022/09/26 13:51:25;;;;;;;4.30;1.58;;;;;;;16.60;37.60;99589.03;4936845;29;20044;-63
2022/09/26 13:54:15;;;;;;;6.80;1.38;;;;;;;17.06;37.42;99586.75;4926135;29;20058;-63
2022/09/26 13:56:49;;;;;;;8.88;1.80;;;;;;;16.93;37.27;99585.09;4936780;29;20040;-63
2022/09/26 13:59:18;;;;;;;5.57;1.27;;;;;;;16.92;36.75;99572.59;4936509;29;20052;-66
2022/09/26 14:02:18;;;;;;;6.93;1.85;;;;;;;16.89;36.77;99570.34;4934199;29;20051;-65
2022/09/26 14:04:46;;;;;;;7.10;1.63;;;;;;;16.94;36.41;99570.47;4935722;29;20053;-65
2022/09/26 14:10:03;;;;;;;11.18;0.90;;;;;;;17.38;35.64;99562.97;4935387;29;20135;-65
2022/09/26 14:12:49;;;;;;;5.28;1.60;;;;;;;17.08;35.29;99558.38;4934245;29;20055;-66
2022/09/26 14:15:18;;;;;;;7.38;1.15;;;;;;;17.44;35.19;99558.50;4936592;29;20047;-65
2022/09/26 14:17:44;;;;;;;7.70;1.58;;;;;;;17.32;35.31;99555.75;4935871;29;20048;-65
2022/09/26 14:20:37;;;;;;;3.50;1.17;;;;;;;16.54;36.24;99546.66;4935612;29;20460;-65
2022/09/26 14:23:04;;;;;;;14.65;1.73;;;;;;;16.75;36.17;99544.47;4934310;29;20047;-65
2022/09/26 14:25:46;;;;;;;6.75;1.15;;;;;;;16.27;36.68;99546.13;4934625;29;20058;-65
2022/09/26 14:28:20;;;;;;;4.40;1.00;;;;;;;16.42;36.38;99545.72;4935529;29;20040;-70
2022/09/26 14:31:09;;;;;;;6.65;1.10;;;;;;;16.34;36.44;99538.75;4934204;29;20055;-70
2022/09/26 14:33:37;;;;;;;6.38;1.33;;;;;;;16.63;36.30;99537.16;4935339;29;20057;-72
2022/09/26 14:36:36;;;;;;;7.72;1.13;;;;;;;16.58;36.52;99530.78;4934543;29;20047;-72
2022/09/26 14:39:04;;;;;;;6.13;1.10;;;;;;;16.70;35.73;99536.22;4891542;29;20048;-70
2022/09/26 14:41:33;;;;;;;8.20;1.83;;;;;;;16.52;36.53;99527.09;4934791;29;20051;-71
2022/09/26 14:44:03;;;;;;;7.30;1.27;;;;;;;16.32;36.35;99529.19;4934409;29;20078;-71
2022/09/26 14:46:33;;;;;;;5.28;1.60;;;;;;;16.36;36.57;99525.78;4934184;29;20050;-71
2022/09/26 14:49:06;;;;;;;2.13;0.98;;;;;;;16.02;36.49;99524.56;4933170;29;20054;-72
2022/09/26 14:51:37;;;;;;;4.57;1.25;;;;;;;16.04;36.12;99517.03;4933699;29;20130;-71
2022/09/26 14:54:25;;;;;;;6.40;1.38;;;;;;;16.43;35.49;99526.53;4933158;29;20078;-71
2022/09/26 14:57:01;;;;;;;2.80;1.40;;;;;;;16.64;35.40;99522.56;4934340;29;20491;-70
2022/09/26 14:59:39;;;;;;;2.00;1.00;;;;;;;16.29;35.61;99521.53;4932860;29;20403;-71
2022/09/26 15:02:27;;;;;;;7.75;1.13;;;;;;;16.13;36.01;99518.41;4933326;29;20195;-71
2022/09/26 15:05:05;;;;;;;3.83;1.25;;;;;;;16.30;35.63;99509.66;4933934;29;20099;-71
2022/09/26 15:07:39;;;;;;;8.63;1.20;;;;;;;16.50;35.34;99510.25;4934394;29;20103;-70
2022/09/26 15:10:24;;;;;;;9.50;1.48;;;;;;;15.98;36.09;99512.50;4932721;29;20483;-71
2022/09/26 15:12:55;;;;;;;2.67;1.08;;;;;;;16.18;35.94;99510.41;4932923;29;20050;-70
2022/09/26 15:15:46;;;;;;;5.40;1.70;;;;;;;16.10;36.06;99509.91;4934734;29;20531;-70
2022/09/26 15:18:30;;;;;;;6.20;1.60;;;;;;;16.37;35.96;99499.59;4934165;29;20448;-71
2022/09/26 15:21:27;;;;;;;7.30;1.52;;;;;;;16.22;36.33;99499.13;4934300;29;20047;-70
2022/09/26 15:23:56;;;;;;;3.33;1.70;;;;;;;16.36;36.05;99508.72;4932416;29;20047;-71
2022/09/26 15:26:30;;;;;;;7.80;1.10;;;;;;;16.12;36.47;99502.38;4933287;29;20463;-70
2022/09/26 15:28:58;;;;;;;5.47;1.10;;;;;;;16.21;36.47;99502.91;4932827;29;20047;-70